Time;durP1;ratioP1;P1;durP2;ratioP2;P2;SDS_P1;SDS_P2;PMS_P1;PMS_P2;Temp;Humidity;BMP_temperature;BMP_pressure;BME280_temperature;BME280_humidity;BME280_pressure;Samples;Min_cycle;Max_cycle;Signal;HPM_P1;HPM_P2
2022/03/11 00:00:28;;;;;;;;;;;;;;;0.21;58.04;100701.50;5032149;28;20004;-36
2022/03/11 00:02:53;;;;;;;;;;;;;;;0.19;57.05;100690.28;5032173;28;19958;-36
2022/03/11 00:05:18;;;;;;;;;;;;;;;0.23;57.88;100696.97;5031595;28;19909;-36
2022/03/11 00:07:44;;;;;;;;;;;;;;;0.05;57.63;100695.72;5032215;28;19988;-36
2022/03/11 00:10:09;;;;;;;;;;;;;;;0.10;57.66;100698.84;5032278;28;19948;-36
2022/03/11 00:12:37;;;;;;;;;;;;;;;0.06;58.04;100699.97;5032137;28;19920;-36
2022/03/11 00:15:04;;;;;;;;;;;;;;;0.14;57.60;100701.09;5032505;28;19916;-36
2022/03/11 00:17:29;;;;;;;;;;;;;;;0.18;54.55;100694.69;5032217;28;19967;-50
2022/03/11 00:19:55;;;;;;;;;;;;;;;0.21;55.49;100698.03;5032294;28;20370;-48
2022/03/11 00:22:20;;;;;;;;;;;;;;;0.08;55.99;100698.13;5032382;28;19913;-49
2022/03/11 00:24:46;;;;;;;;;;;;;;;-0.22;56.65;100700.22;5033704;28;20368;-48
2022/03/11 00:27:11;;;;;;;;;;;;;;;-0.17;56.56;100699.91;5032027;28;19920;-49
2022/03/11 00:29:36;;;;;;;;;;;;;;;-0.24;58.67;100698.66;5031960;28;19909;-48
2022/03/11 00:32:01;;;;;;;;;;;;;;;-0.33;57.81;100700.13;5031760;28;20016;-50
2022/03/11 00:34:27;;;;;;;;;;;;;;;-0.27;58.47;100697.06;5050792;28;20388;-50
2022/03/11 00:36:52;;;;;;;;;;;;;;;-0.04;58.77;100695.44;5051793;28;19995;-49
2022/03/11 00:39:17;;;;;;;;;;;;;;;-0.28;60.26;100699.84;5051882;28;20007;-48
2022/03/11 00:41:43;;;;;;;;;;;;;;;-0.48;60.11;100702.06;5050276;28;19924;-51
2022/03/11 00:44:08;;;;;;;;;;;;;;;-0.34;62.05;100700.25;5032410;28;20050;-48
2022/03/11 00:46:33;;;;;;;;;;;;;;;-0.40;61.27;100697.16;5031588;28;19909;-51
2022/03/11 00:48:58;;;;;;;;;;;;;;;-0.28;60.58;100694.59;5031884;28;20246;-49
2022/03/11 00:51:24;;;;;;;;;;;;;;;-0.29;61.49;100693.75;5057263;28;19920;-51
2022/03/11 00:53:49;;;;;;;;;;;;;;;-0.03;61.40;100694.47;5054634;28;19919;-48
2022/03/11 00:56:14;;;;;;;;;;;;;;;-0.37;61.89;100703.94;5051614;28;20392;-49
2022/03/11 00:58:39;;;;;;;;;;;;;;;-0.53;62.24;100696.34;5027515;28;19920;-47
2022/03/11 01:01:05;;;;;;;;;;;;;;;-0.34;61.96;100697.63;5031781;28;19996;-47
2022/03/11 01:03:30;;;;;;;;;;;;;;;-0.27;60.63;100709.34;5031535;28;19913;-51
2022/03/11 01:05:55;;;;;;;;;;;;;;;-0.45;61.31;100699.25;5031124;28;19955;-48
2022/03/11 01:08:20;;;;;;;;;;;;;;;-0.48;62.01;100707.28;5031347;28;19909;-48
2022/03/11 01:10:46;;;;;;;;;;;;;;;-0.36;60.26;100708.22;5030903;28;19990;-49
2022/03/11 01:13:11;;;;;;;;;;;;;;;-0.34;60.24;100705.47;5031213;28;19953;-50
2022/03/11 01:15:36;;;;;;;;;;;;;;;-0.46;60.29;100707.19;5031472;28;19959;-51
2022/03/11 01:18:02;;;;;;;;;;;;;;;-0.52;60.37;100705.00;5034618;28;20016;-52
2022/03/11 01:20:27;;;;;;;;;;;;;;;-0.48;58.69;100706.47;5035343;28;19909;-51
2022/03/11 01:22:53;;;;;;;;;;;;;;;-0.53;58.08;100703.34;5035316;28;19924;-51
2022/03/11 01:25:18;;;;;;;;;;;;;;;-0.75;59.34;100706.63;5034812;28;20451;-51
2022/03/11 01:27:44;;;;;;;;;;;;;;;-0.94;57.14;100707.91;5017466;28;19909;-51
2022/03/11 01:30:13;;;;;;;;;;;;;;;-0.95;56.77;100702.78;5035101;28;19996;-51
2022/03/11 01:32:38;;;;;;;;;;;;;;;-1.20;57.63;100707.06;5039179;28;19920;-49
2022/03/11 01:35:04;;;;;;;;;;;;;;;-1.39;59.63;100708.31;5037164;28;19908;-49
2022/03/11 01:37:29;;;;;;;;;;;;;;;-1.39;62.11;100707.47;5054916;28;20050;-50
2022/03/11 01:39:54;;;;;;;;;;;;;;;-1.49;63.76;100714.25;5054864;28;19908;-49
2022/03/11 01:42:19;;;;;;;;;;;;;;;-1.46;64.76;100717.50;5054811;28;20018;-51
2022/03/11 01:44:45;;;;;;;;;;;;;;;-1.59;64.04;100717.47;5054616;28;20372;-49
2022/03/11 01:47:10;;;;;;;;;;;;;;;-1.54;64.89;100716.31;5054753;28;19999;-49
2022/03/11 01:49:35;;;;;;;;;;;;;;;-1.46;64.05;100711.44;5054514;28;20233;-51
2022/03/11 01:52:01;;;;;;;;;;;;;;;-1.53;65.12;100710.16;5072570;28;19919;-47
2022/03/11 01:54:26;;;;;;;;;;;;;;;-1.43;65.48;100708.63;5074663;28;19999;-48
2022/03/11 01:56:51;;;;;;;;;;;;;;;-1.37;64.24;100718.66;5074828;28;20390;-49
2022/03/11 01:59:16;;;;;;;;;;;;;;;-1.41;63.17;100706.72;5074482;28;19912;-52
2022/03/11 02:01:42;;;;;;;;;;;;;;;-1.50;64.38;100716.03;5074623;28;19970;-50
2022/03/11 02:04:07;;;;;;;;;;;;;;;-1.35;63.92;100714.19;5074577;28;20424;-49
2022/03/11 02:06:32;;;;;;;;;;;;;;;-1.14;64.32;100719.72;5074325;28;19920;-49
2022/03/11 02:08:59;;;;;;;;;;;;;;;-1.35;63.16;100724.63;5071328;28;20457;-50
2022/03/11 02:11:24;;;;;;;;;;;;;;;-1.09;63.72;100724.63;5036877;28;19931;-48
2022/03/11 02:13:53;;;;;;;;;;;;;;;-1.17;63.32;100724.31;5054338;28;20329;-48
2022/03/11 02:16:19;;;;;;;;;;;;;;;-1.17;65.66;100724.31;5054071;28;19912;-47
2022/03/11 02:18:45;;;;;;;;;;;;;;;-1.21;64.07;100723.69;5036264;28;19909;-49
2022/03/11 02:21:10;;;;;;;;;;;;;;;-1.36;64.27;100724.72;5054056;28;19919;-50
2022/03/11 02:23:45;;;;;;;;;;;;;;;-1.35;62.80;100713.31;5054168;28;19919;-49
2022/03/11 02:26:11;;;;;;;;;;;;;;;-1.40;64.98;100722.31;5053864;28;20402;-48
2022/03/11 02:28:36;;;;;;;;;;;;;;;-1.28;63.78;100715.41;5053129;28;19966;-51
2022/03/11 02:31:02;;;;;;;;;;;;;;;-1.44;62.66;100731.28;5054030;28;19947;-51
2022/03/11 02:33:27;;;;;;;;;;;;;;;-1.10;62.20;100725.59;5053678;28;19912;-51
2022/03/11 02:35:53;;;;;;;;;;;;;;;-1.43;62.25;100727.75;5053538;28;19995;-48
2022/03/11 02:38:18;;;;;;;;;;;;;;;-1.27;62.81;100735.38;5053825;28;19975;-49
2022/03/11 02:40:43;;;;;;;;;;;;;;;-1.17;62.35;100734.78;5053749;28;19909;-52
2022/03/11 02:43:08;;;;;;;;;;;;;;;-0.84;61.82;100742.94;5053456;28;19917;-51
2022/03/11 02:45:34;;;;;;;;;;;;;;;-0.79;61.80;100737.38;5053752;28;20028;-52
2022/03/11 02:47:59;;;;;;;;;;;;;;;-0.76;59.78;100741.53;5053688;28;19916;-49
2022/03/11 02:50:24;;;;;;;;;;;;;;;-0.99;58.37;100744.81;5058209;28;20003;-50
2022/03/11 02:52:50;;;;;;;;;;;;;;;-0.83;58.13;100757.66;5073434;28;19916;-50
2022/03/11 02:55:15;;;;;;;;;;;;;;;-0.67;57.33;100743.53;5073413;28;19908;-49
2022/03/11 02:57:40;;;;;;;;;;;;;;;-0.70;58.74;100746.38;5073357;28;19908;-50
2022/03/11 03:00:06;;;;;;;;;;;;;;;-0.68;58.20;100745.31;5073162;28;19912;-52
2022/03/11 03:02:31;;;;;;;;;;;;;;;-1.00;56.88;100739.69;5073309;28;20418;-50
2022/03/11 03:04:56;;;;;;;;;;;;;;;-1.17;55.85;100737.38;5073182;28;19908;-47
2022/03/11 03:07:22;;;;;;;;;;;;;;;-1.05;56.38;100744.38;5073033;28;19908;-50
2022/03/11 03:09:47;;;;;;;;;;;;;;;-1.09;55.19;100741.13;5073050;28;19914;-50
2022/03/11 03:12:12;;;;;;;;;;;;;;;-1.12;55.79;100740.50;5072958;28;19917;-48
2022/03/11 03:14:38;;;;;;;;;;;;;;;-1.04;55.81;100743.44;5072833;28;19909;-48
2022/03/11 03:17:03;;;;;;;;;;;;;;;-1.31;53.25;100740.94;5073108;28;20351;-49
2022/03/11 03:19:29;;;;;;;;;;;;;;;-1.07;52.80;100741.03;5072907;28;19912;-48
2022/03/11 03:21:54;;;;;;;;;;;;;;;-1.01;52.31;100740.59;5073514;28;19916;-50
2022/03/11 03:24:19;;;;;;;;;;;;;;;-1.29;51.34;100742.50;5072585;28;19920;-49
2022/03/11 03:26:45;;;;;;;;;;;;;;;-1.54;49.88;100687.59;5072738;28;19995;-49
2022/03/11 03:29:10;;;;;;;;;;;;;;;-1.32;50.38;100734.03;5072465;28;20379;-50
2022/03/11 03:31:35;;;;;;;;;;;;;;;-1.25;50.60;100746.56;5072916;28;19916;-48
2022/03/11 03:34:00;;;;;;;;;;;;;;;-1.26;50.93;100744.03;5057064;28;20388;-49
2022/03/11 03:36:26;;;;;;;;;;;;;;;-1.12;51.10;100745.72;5052609;28;19915;-51
2022/03/11 03:38:51;;;;;;;;;;;;;;;-1.38;50.59;100745.72;5052764;28;19908;-51
2022/03/11 03:41:16;;;;;;;;;;;;;;;-1.07;51.84;100746.25;5034745;28;20375;-52
2022/03/11 03:43:41;;;;;;;;;;;;;;;-0.99;50.67;100744.81;5052143;28;19939;-52
2022/03/11 03:46:07;;;;;;;;;;;;;;;-0.90;50.98;100759.00;5052075;28;19951;-49
2022/03/11 03:48:32;;;;;;;;;;;;;;;-1.13;51.57;100752.72;5052388;28;19988;-49
2022/03/11 03:50:57;;;;;;;;;;;;;;;-0.93;51.80;100750.53;5061662;28;19936;-48
2022/03/11 03:53:23;;;;;;;;;;;;;;;-1.00;51.86;100752.75;5071891;28;19985;-51
2022/03/11 03:55:48;;;;;;;;;;;;;;;-1.01;51.64;100746.69;5071817;28;20378;-50
2022/03/11 03:58:13;;;;;;;;;;;;;;;-0.99;50.20;100749.19;5072097;28;19908;-49
2022/03/11 04:00:39;;;;;;;;;;;;;;;-0.79;52.70;100743.44;5072256;28;20308;-51
2022/03/11 04:03:05;;;;;;;;;;;;;;;-0.60;50.44;100753.44;5072049;28;20383;-52
2022/03/11 04:05:30;;;;;;;;;;;;;;;-0.69;49.25;100750.63;5072320;28;19920;-49
2022/03/11 04:07:55;;;;;;;;;;;;;;;-0.85;49.06;100758.72;5072191;28;19908;-55
2022/03/11 04:10:21;;;;;;;;;;;;;;;-0.79;49.46;100758.28;5072523;28;19915;-50
2022/03/11 04:12:46;;;;;;;;;;;;;;;-0.85;51.72;100762.16;5071936;28;19912;-48
2022/03/11 04:15:11;;;;;;;;;;;;;;;-0.76;50.73;100759.84;5072343;28;20016;-48
2022/03/11 04:17:37;;;;;;;;;;;;;;;-0.79;50.96;100766.13;5053581;28;20387;-51
2022/03/11 04:20:03;;;;;;;;;;;;;;;-0.67;50.18;100761.81;5071383;28;20397;-50
2022/03/11 04:22:28;;;;;;;;;;;;;;;-1.07;52.48;100775.00;5071264;28;19923;-50
2022/03/11 04:24:53;;;;;;;;;;;;;;;-1.04;51.81;100772.19;5070870;28;19921;-52
2022/03/11 04:27:19;;;;;;;;;;;;;;;-1.33;51.73;100769.75;5070970;28;20391;-52
2022/03/11 04:29:44;;;;;;;;;;;;;;;-1.55;52.98;100778.16;5071033;28;19913;-51
2022/03/11 04:32:09;;;;;;;;;;;;;;;-1.61;53.45;100782.00;5070776;28;19913;-49
2022/03/11 04:34:35;;;;;;;;;;;;;;;-1.74;54.01;100778.50;5050549;28;19908;-50
2022/03/11 04:37:00;;;;;;;;;;;;;;;-1.77;56.05;100781.31;5049446;28;20528;-48
2022/03/11 04:39:26;;;;;;;;;;;;;;;-1.47;54.35;100790.69;5049644;28;19915;-52
2022/03/11 04:41:53;;;;;;;;;;;;;;;-1.47;55.37;100790.69;5049967;28;20024;-50
2022/03/11 04:44:18;;;;;;;;;;;;;;;-1.51;54.02;100797.06;5049797;28;19915;-50
2022/03/11 04:46:43;;;;;;;;;;;;;;;-1.51;56.08;100792.66;5049978;28;19999;-51
2022/03/11 04:49:08;;;;;;;;;;;;;;;-1.16;55.38;100793.91;5049812;28;20230;-50
2022/03/11 04:51:34;;;;;;;;;;;;;;;-1.37;55.28;100783.97;5065989;28;19915;-51
2022/03/11 04:53:59;;;;;;;;;;;;;;;-1.45;56.13;100787.03;5075910;28;19973;-51
2022/03/11 04:56:26;;;;;;;;;;;;;;;-1.44;55.48;100786.13;5075386;28;20299;-49
2022/03/11 04:58:51;;;;;;;;;;;;;;;-1.42;55.45;100783.41;5075373;28;19915;-51
2022/03/11 05:01:16;;;;;;;;;;;;;;;-1.61;56.57;100791.59;5075439;28;19909;-53
2022/03/11 05:03:41;;;;;;;;;;;;;;;-1.52;56.99;100787.53;5075286;28;20338;-50
2022/03/11 05:06:07;;;;;;;;;;;;;;;-1.45;56.19;100792.25;5075484;28;19924;-49
2022/03/11 05:08:32;;;;;;;;;;;;;;;-1.74;57.51;100804.59;5075307;28;19908;-48
2022/03/11 05:10:57;;;;;;;;;;;;;;;-1.64;58.47;100797.00;5075200;28;19931;-51
2022/03/11 05:13:22;;;;;;;;;;;;;;;-1.89;59.59;100805.59;5074812;28;19916;-51
2022/03/11 05:15:48;;;;;;;;;;;;;;;3.23;94.58;100819.44;5057231;28;19909;-49
2022/03/11 05:18:13;;;;;;;;;;;;;;;3.88;51.50;100807.72;5075118;28;19969;-51
2022/03/11 05:20:38;;;;;;;;;;;;;;;1.75;49.23;100805.16;5056700;28;19974;-52
2022/03/11 05:23:04;;;;;;;;;;;;;;;0.68;52.46;100806.31;5040544;28;19955;-37
2022/03/11 05:25:29;;;;;;;;;;;;;;;0.05;54.40;100810.88;5035031;28;19975;-37
2022/03/11 05:27:54;;;;;;;;;;;;;;;-0.48;55.82;100813.69;5034848;28;19932;-37
2022/03/11 05:30:20;;;;;;;;;;;;;;;-0.88;57.15;100821.63;5017315;28;19931;-37
2022/03/11 05:32:46;;;;;;;;;;;;;;;-1.13;58.25;100825.88;5039510;28;19920;-35
2022/03/11 05:35:11;;;;;;;;;;;;;;;-1.08;57.96;100825.59;5054659;28;19991;-36
2022/03/11 05:37:37;;;;;;;;;;;;;;;-1.44;60.64;100820.06;5054627;28;19992;-36
2022/03/11 05:40:02;;;;;;;;;;;;;;;-1.82;61.03;100832.97;5054519;28;19991;-36
2022/03/11 05:42:28;;;;;;;;;;;;;;;-1.88;61.15;100826.38;5054532;28;20054;-37
2022/03/11 05:44:53;;;;;;;;;;;;;;;-1.82;61.92;100830.38;5036699;28;19905;-37
2022/03/11 05:47:18;;;;;;;;;;;;;;;-1.78;62.96;100822.22;5054205;28;19916;-36
2022/03/11 05:49:43;;;;;;;;;;;;;;;-1.91;63.30;100821.31;5054017;28;20049;-36
2022/03/11 05:52:09;;;;;;;;;;;;;;;-1.68;62.70;100829.47;5072842;28;19912;-37
2022/03/11 05:54:34;;;;;;;;;;;;;;;-1.88;61.86;100834.19;5073528;28;20011;-37
2022/03/11 05:57:00;;;;;;;;;;;;;;;-1.60;62.24;100832.41;5055907;28;19923;-37
2022/03/11 05:59:26;;;;;;;;;;;;;;;-1.68;60.76;100826.88;5074337;28;19915;-36
2022/03/11 06:01:51;;;;;;;;;;;;;;;-1.43;60.67;100824.38;5073781;28;19908;-36
2022/03/11 06:04:16;;;;;;;;;;;;;;;-1.71;61.08;100838.34;5072798;28;20276;-49
2022/03/11 06:06:42;;;;;;;;;;;;;;;-1.61;61.06;100836.00;5073982;28;19908;-51
2022/03/11 06:09:08;;;;;;;;;;;;;;;-1.48;61.67;100836.03;5073936;28;20358;-48
2022/03/11 06:11:34;;;;;;;;;;;;;;;-1.60;61.84;100841.13;5074186;28;19908;-48
2022/03/11 06:13:59;;;;;;;;;;;;;;;-2.19;63.37;100843.06;5073985;28;20558;-49
2022/03/11 06:16:24;;;;;;;;;;;;;;;-2.01;64.86;100843.72;5073868;28;19920;-37
2022/03/11 06:18:49;;;;;;;;;;;;;;;-1.74;62.75;100848.16;5073616;28;19955;-35
2022/03/11 06:21:15;;;;;;;;;;;;;;;-1.64;62.68;100844.88;5074335;28;19908;-37
2022/03/11 06:23:40;;;;;;;;;;;;;;;-1.44;61.82;100851.41;5074137;28;19977;-37
2022/03/11 06:26:05;;;;;;;;;;;;;;;-1.23;62.81;100848.34;5073639;28;20002;-37
2022/03/11 06:28:31;;;;;;;;;;;;;;;-1.09;61.44;100850.88;5074244;28;19912;-37
2022/03/11 06:30:56;;;;;;;;;;;;;;;-0.73;60.67;100858.97;5073745;28;20005;-37
2022/03/11 06:33:21;;;;;;;;;;;;;;;-0.72;59.07;100852.78;5063727;28;20274;-38
2022/03/11 06:35:47;;;;;;;;;;;;;;;-0.83;58.53;100849.13;5053241;28;19913;-37
2022/03/11 06:38:12;;;;;;;;;;;;;;;-0.85;58.09;100855.41;5053516;28;20033;-37
2022/03/11 06:40:37;;;;;;;;;;;;;;;-0.87;59.47;100865.16;5053572;28;19908;-37
2022/03/11 06:43:03;;;;;;;;;;;;;;;-0.84;59.20;100860.56;5053807;28;19999;-38
2022/03/11 06:45:28;;;;;;;;;;;;;;;-0.65;58.95;100867.13;5053653;28;20373;-37
2022/03/11 06:47:54;;;;;;;;;;;;;;;-0.32;59.17;100868.41;5053259;28;20432;-37
2022/03/11 06:50:19;;;;;;;;;;;;;;;0.37;55.06;100869.63;5039085;28;19912;-37
2022/03/11 06:52:44;;;;;;;;;;;;;;;0.32;54.53;100868.28;5072271;28;19918;-37
2022/03/11 06:55:10;;;;;;;;;;;;;;;-0.13;56.49;100875.81;5073027;28;20338;-49
2022/03/11 06:57:35;;;;;;;;;;;;;;;-0.13;56.45;100874.03;5073465;28;19908;-49
2022/03/11 07:00:01;;;;;;;;;;;;;;;-0.43;56.45;100869.16;5073101;28;20322;-47
2022/03/11 07:02:26;;;;;;;;;;;;;;;-0.18;56.01;100873.50;5072840;28;19963;-49
2022/03/11 07:04:51;;;;;;;;;;;;;;;-0.55;56.45;100876.06;5072908;28;19969;-48
2022/03/11 07:07:16;;;;;;;;;;;;;;;-0.38;57.20;100876.66;5073090;28;20019;-48
2022/03/11 07:09:42;;;;;;;;;;;;;;;-0.56;58.00;100873.53;5073222;28;19908;-48
2022/03/11 07:12:07;;;;;;;;;;;;;;;-0.52;58.10;100870.59;5072854;28;19916;-48
2022/03/11 07:14:35;;;;;;;;;;;;;;;-0.09;57.22;100869.44;5072603;28;19915;-49
2022/03/11 07:17:00;;;;;;;;;;;;;;;0.49;54.92;100861.81;5072572;28;20403;-48
2022/03/11 07:19:27;;;;;;;;;;;;;;;1.31;51.64;100875.88;5072648;28;19908;-48
2022/03/11 07:21:53;;;;;;;;;;;;;;;1.55;52.18;100869.69;5072818;28;19919;-49
2022/03/11 07:24:18;;;;;;;;;;;;;;;1.94;50.85;100881.53;5072714;28;19916;-48
2022/03/11 07:26:43;;;;;;;;;;;;;;;2.52;49.61;100873.44;5054579;28;19914;-52
2022/03/11 07:29:09;;;;;;;;;;;;;;;2.96;47.68;100862.88;5072517;28;20550;-50
2022/03/11 07:31:34;;;;;;;;;;;;;;;3.25;46.32;100859.63;5072593;28;19912;-52
2022/03/11 07:33:59;;;;;;;;;;;;;;;3.35;46.50;100863.16;5057352;28;19916;-47
2022/03/11 07:36:25;;;;;;;;;;;;;;;3.53;44.36;100851.06;5045642;28;19924;-47
2022/03/11 07:38:50;;;;;;;;;;;;;;;3.57;44.34;100856.06;5043863;28;20068;-49
2022/03/11 07:41:15;;;;;;;;;;;;;;;3.78;43.40;100853.41;5042517;28;19909;-49
2022/03/11 07:43:44;;;;;;;;;;;;;;;4.21;41.91;100860.22;5032055;28;19908;-48
2022/03/11 07:46:16;;;;;;;;;;;;;;;3.96;42.37;100858.88;5031982;28;19916;-49
2022/03/11 07:48:41;;;;;;;;;;;;;;;3.80;43.02;100856.72;5032151;28;19909;-52
2022/03/11 07:51:07;;;;;;;;;;;;;;;3.80;43.28;100865.47;5053703;28;20330;-51
2022/03/11 07:53:32;;;;;;;;;;;;;;;3.51;43.08;100863.53;5071727;28;19997;-52
2022/03/11 07:55:57;;;;;;;;;;;;;;;3.16;43.94;100869.13;5054194;28;20348;-53
2022/03/11 07:58:24;;;;;;;;;;;;;;;3.37;43.34;100869.13;5072058;28;19908;-51
2022/03/11 08:00:49;;;;;;;;;;;;;;;2.59;46.10;100872.94;5071840;28;19977;-52
2022/03/11 08:03:15;;;;;;;;;;;;;;;2.25;47.29;100865.97;5071522;28;19912;-38
2022/03/11 08:05:41;;;;;;;;;;;;;;;2.49;46.30;100875.47;5071891;28;19912;-38
2022/03/11 08:08:06;;;;;;;;;;;;;;;2.47;47.97;100877.38;5071788;28;20352;-38
2022/03/11 08:10:33;;;;;;;;;;;;;;;2.63;44.73;100867.31;5071813;28;20307;-37
2022/03/11 08:12:59;;;;;;;;;;;;;;;2.34;45.64;100870.50;5071120;28;19920;-37
2022/03/11 08:15:24;;;;;;;;;;;;;;;2.40;45.24;100870.94;5071096;28;20309;-37
2022/03/11 08:17:49;;;;;;;;;;;;;;;2.31;46.77;100865.47;5071035;28;19912;-37
2022/03/11 08:20:15;;;;;;;;;;;;;;;2.34;47.30;100867.03;5071107;28;20017;-37
2022/03/11 08:22:40;;;;;;;;;;;;;;;2.37;46.46;100861.53;5070729;28;19912;-38
2022/03/11 08:25:08;;;;;;;;;;;;;;;2.34;46.18;100862.63;5070686;28;19916;-37
2022/03/11 08:27:34;;;;;;;;;;;;;;;2.60;43.90;100864.94;5070058;28;19908;-37
2022/03/11 08:29:59;;;;;;;;;;;;;;;3.02;43.81;100858.91;5070660;28;19915;-37
2022/03/11 08:32:24;;;;;;;;;;;;;;;3.07;43.17;100862.00;5068010;28;19916;-37
2022/03/11 08:34:50;;;;;;;;;;;;;;;3.74;41.54;100859.91;5050687;28;19919;-37
2022/03/11 08:37:16;;;;;;;;;;;;;;;2.78;43.28;100845.97;5050126;28;19947;-37
2022/03/11 08:39:41;;;;;;;;;;;;;;;3.12;44.04;100826.47;5032640;28;19908;-38
2022/03/11 08:42:06;;;;;;;;;;;;;;;3.54;41.46;100859.78;5033073;28;19948;-39
2022/03/11 08:44:32;;;;;;;;;;;;;;;3.83;42.04;100861.75;5050693;28;19928;-38
2022/03/11 08:46:57;;;;;;;;;;;;;;;4.21;41.09;100862.84;5050809;28;19908;-37
2022/03/11 08:49:23;;;;;;;;;;;;;;;3.86;40.57;100857.03;5050921;28;19913;-38
2022/03/11 08:51:48;;;;;;;;;;;;;;;4.14;41.11;100861.72;5060550;28;19955;-37
2022/03/11 08:54:13;;;;;;;;;;;;;;;3.91;42.05;100846.09;5050013;28;19913;-37
2022/03/11 08:56:40;;;;;;;;;;;;;;;3.63;41.76;100847.66;5050367;28;20296;-37
2022/03/11 08:59:05;;;;;;;;;;;;;;;2.96;42.31;100849.72;5050503;28;19913;-38
2022/03/11 09:01:30;;;;;;;;;;;;;;;3.24;42.33;100848.28;5050382;28;19916;-37
2022/03/11 09:03:55;;;;;;;;;;;;;;;3.13;42.92;100843.91;5050292;28;19967;-37
2022/03/11 09:06:22;;;;;;;;;;;;;;;3.47;42.50;100848.13;5050481;28;19916;-37
2022/03/11 09:08:47;;;;;;;;;;;;;;;3.62;43.47;100840.72;5050277;28;20402;-39
2022/03/11 09:11:12;;;;;;;;;;;;;;;4.02;42.59;100845.19;5050548;28;19974;-37
2022/03/11 09:13:38;;;;;;;;;;;;;;;4.08;41.42;100847.28;5050525;28;19960;-37
2022/03/11 09:16:04;;;;;;;;;;;;;;;4.27;40.68;100839.41;5050407;28;19916;-37
2022/03/11 09:18:29;;;;;;;;;;;;;;;4.79;40.96;100844.44;5050270;28;20002;-38
2022/03/11 09:20:55;;;;;;;;;;;;;;;5.06;38.29;100832.34;5050651;28;19951;-39
2022/03/11 09:23:20;;;;;;;;;;;;;;;4.65;38.09;100829.06;5050208;28;20377;-38
2022/03/11 09:25:45;;;;;;;;;;;;;;;4.44;39.90;100829.19;5050262;28;19971;-39
2022/03/11 09:28:11;;;;;;;;;;;;;;;4.44;37.60;100823.91;5050448;28;20001;-38
2022/03/11 09:30:36;;;;;;;;;;;;;;;4.72;38.34;100826.69;5049900;28;19944;-37
2022/03/11 09:33:01;;;;;;;;;;;;;;;4.83;39.63;100827.38;5050313;28;19912;-37
2022/03/11 09:35:28;;;;;;;;;;;;;;;4.68;39.14;100834.03;5050174;28;19928;-37
2022/03/11 09:37:53;;;;;;;;;;;;;;;4.47;37.36;100827.09;5051060;28;19908;-37
2022/03/11 09:40:18;;;;;;;;;;;;;;;4.03;38.36;100833.66;5053752;28;19908;-37
2022/03/11 09:42:45;;;;;;;;;;;;;;;4.44;39.08;100823.91;5053454;28;19978;-38
2022/03/11 09:45:11;;;;;;;;;;;;;;;4.29;38.98;100819.03;5053320;28;19913;-38
2022/03/11 09:47:40;;;;;;;;;;;;;;;4.23;40.56;100814.31;5053312;28;19963;-50
2022/03/11 09:50:05;;;;;;;;;;;;;;;4.77;40.84;100817.38;5060601;28;19967;-48
2022/03/11 09:52:31;;;;;;;;;;;;;;;4.41;39.56;100811.00;5043478;28;19952;-51
2022/03/11 09:54:57;;;;;;;;;;;;;;;4.40;39.01;100806.69;5056084;28;19943;-38
2022/03/11 09:57:23;;;;;;;;;;;;;;;4.40;37.80;100804.91;5052957;28;19909;-38
2022/03/11 09:59:48;;;;;;;;;;;;;;;4.66;39.81;100809.63;5053629;28;19912;-37
2022/03/11 10:02:14;;;;;;;;;;;;;;;5.08;37.00;100812.78;5053484;28;19982;-37
2022/03/11 10:04:48;;;;;;;;;;;;;;;4.62;36.86;100802.97;5053328;28;19996;-50
2022/03/11 10:07:34;;;;;;;;;;;;;;;5.11;36.54;100808.19;5053166;28;20387;-38
2022/03/11 10:10:10;;;;;;;;;;;;;;;5.18;36.01;100798.72;5052949;28;19957;-38
2022/03/11 10:12:39;;;;;;;;;;;;;;;4.61;38.22;100790.75;5053240;28;19962;-37
2022/03/11 10:15:04;;;;;;;;;;;;;;;4.21;38.40;100795.16;5053305;28;20363;-37
2022/03/11 10:17:37;;;;;;;;;;;;;;;4.71;37.90;100791.56;5053093;28;19951;-37
2022/03/11 10:20:12;;;;;;;;;;;;;;;3.99;37.03;100783.03;5052819;28;19916;-50
2022/03/11 10:22:37;;;;;;;;;;;;;;;4.29;37.45;100784.75;5052629;28;19924;-49
2022/03/11 10:25:07;;;;;;;;;;;;;;;4.40;37.44;100783.81;5070212;28;19916;-51
2022/03/11 10:27:33;;;;;;;;;;;;;;;4.45;38.47;100778.09;5093145;28;19928;-52
2022/03/11 10:30:02;;;;;;;;;;;;;;;5.11;38.78;100768.63;5092745;28;19961;-49
2022/03/11 10:32:27;;;;;;;;;;;;;;;5.18;38.65;100775.81;5089928;28;20060;-51
2022/03/11 10:34:53;;;;;;;;;;;;;;;5.13;37.04;100771.94;5067944;28;19974;-51
2022/03/11 10:37:19;;;;;;;;;;;;;;;4.72;38.14;100771.31;5044673;28;19912;-51
2022/03/11 10:39:46;;;;;;;;;;;;;;;5.13;37.51;100767.50;5061897;28;20321;-51
2022/03/11 10:42:18;;;;;;;;;;;;;;;4.81;37.91;100773.94;5061211;28;19917;-37
2022/03/11 10:45:02;;;;;;;;;;;;;;;4.17;36.87;100769.22;5067430;28;19908;-49
2022/03/11 10:47:30;;;;;;;;;;;;;;;3.48;39.10;100758.53;5061622;28;20053;-49
2022/03/11 10:49:56;;;;;;;;;;;;;;;3.60;41.78;100761.03;5060117;28;20305;-48
2022/03/11 10:52:30;;;;;;;;;;;;;;;3.28;42.70;100759.41;5061126;28;19908;-49
2022/03/11 10:54:56;;;;;;;;;;;;;;;3.92;43.64;100751.16;5061886;28;19919;-50
2022/03/11 10:57:22;;;;;;;;;;;;;;;4.09;41.75;100752.31;5043336;28;19908;-52
2022/03/11 10:59:47;;;;;;;;;;;;;;;4.36;42.10;100749.94;5033821;28;20360;-50
2022/03/11 11:02:12;;;;;;;;;;;;;;;4.61;40.73;100738.03;5051740;28;19916;-52
2022/03/11 11:04:38;;;;;;;;;;;;;;;3.96;39.79;100742.97;5051841;28;19944;-50
2022/03/11 11:07:05;;;;;;;;;;;;;;;4.70;39.12;100732.75;5051715;28;19962;-51
2022/03/11 11:09:30;;;;;;;;;;;;;;;4.56;37.34;100730.53;5051640;28;19913;-49
2022/03/11 11:11:56;;;;;;;;;;;;;;;4.38;38.22;100730.41;5034176;28;20422;-49
2022/03/11 11:14:22;;;;;;;;;;;;;;;4.32;36.55;100723.03;5051650;28;19913;-50
2022/03/11 11:16:49;;;;;;;;;;;;;;;4.11;37.51;100723.16;5051640;28;19915;-51
2022/03/11 11:19:18;;;;;;;;;;;;;;;4.22;38.26;100725.66;5051719;28;19920;-48
2022/03/11 11:21:46;;;;;;;;;;;;;;;3.83;37.88;100723.00;5051981;28;19908;-51
2022/03/11 11:24:16;;;;;;;;;;;;;;;3.53;37.50;100723.91;5049539;28;19946;-50
2022/03/11 11:26:44;;;;;;;;;;;;;;;3.68;37.60;100712.03;5031403;28;19913;-48
2022/03/11 11:29:09;;;;;;;;;;;;;;;3.89;38.67;100717.19;5031393;28;19966;-51
2022/03/11 11:31:34;;;;;;;;;;;;;;;4.47;37.09;100716.41;5013760;28;20359;-52
2022/03/11 11:34:00;;;;;;;;;;;;;;;4.40;35.83;100715.28;5028651;28;19917;-48
2022/03/11 11:36:43;;;;;;;;;;;;;;;4.21;37.12;100707.38;5050854;28;20465;-51
2022/03/11 11:39:08;;;;;;;;;;;;;;;4.15;34.92;100708.78;5051152;28;19912;-51
2022/03/11 11:41:34;;;;;;;;;;;;;;;3.95;36.00;100700.00;5051275;28;19909;-50
2022/03/11 11:44:00;;;;;;;;;;;;;;;4.12;35.66;100706.41;5032892;28;19908;-50
2022/03/11 11:46:29;;;;;;;;;;;;;;;3.97;38.83;100697.25;5050430;28;20022;-52
2022/03/11 11:48:55;;;;;;;;;;;;;;;3.81;38.04;100708.28;5050843;28;20007;-50
2022/03/11 11:51:24;;;;;;;;;;;;;;;3.62;41.58;100711.75;5063692;28;19973;-50
2022/03/11 11:53:50;;;;;;;;;;;;;;;3.66;37.68;100708.69;5071241;28;19970;-52
2022/03/11 11:56:34;;;;;;;;;;;;;;;3.73;41.62;100714.22;5071063;28;19958;-51
2022/03/11 11:58:59;;;;;;;;;;;;;;;3.63;40.58;100710.75;5070520;28;19966;-50
2022/03/11 12:01:43;;;;;;;;;;;;;;;4.00;40.17;100700.44;5070606;28;20358;-49
2022/03/11 12:04:17;;;;;;;;;;;;;;;3.86;41.84;100703.47;5070837;28;19912;-51
2022/03/11 12:06:58;;;;;;;;;;;;;;;3.76;40.55;100702.63;5071122;28;19915;-53
2022/03/11 12:09:42;;;;;;;;;;;;;;;3.95;39.63;100693.91;5070946;28;20552;-52
2022/03/11 12:12:25;;;;;;;;;;;;;;;3.76;41.05;100697.34;5070881;28;20356;-53
2022/03/11 12:14:57;;;;;;;;;;;;;;;3.88;40.57;100688.34;5071840;28;20368;-52
2022/03/11 12:17:38;;;;;;;;;;;;;;;4.19;40.29;100685.59;5071531;28;19932;-49
2022/03/11 12:20:22;;;;;;;;;;;;;;;4.26;43.50;100690.16;5053463;28;19908;-51
2022/03/11 12:22:52;;;;;;;;;;;;;;;3.86;40.57;100687.66;5071533;28;19923;-52
2022/03/11 12:25:17;;;;;;;;;;;;;;;4.07;39.61;100682.25;5070604;28;20493;-50
2022/03/11 12:27:58;;;;;;;;;;;;;;;4.34;39.54;100686.84;5052388;28;19918;-51
2022/03/11 12:30:24;;;;;;;;;;;;;;;4.81;40.23;100686.06;5070417;28;19912;-53
2022/03/11 12:32:50;;;;;;;;;;;;;;;4.66;37.13;100677.78;5064422;28;20004;-50
2022/03/11 12:35:17;;;;;;;;;;;;;;;4.64;37.13;100679.72;5050220;28;19915;-48